Flight Track Log - Related Links

Times and Time Zones

All times are in EDT time to prevent confusion due to time zone crossing. See the RPA3446 flight status page for this flight to view local times or setup timezone preferences in your user account.

Time Position Orientation Groundspeed Altitude Reporting Facility
EDT Latitude Longitude Course Direction KTS MPH feet Rate Location/Type
Sun 09:56:19 PM 39.8667 -75.2667 90° East 145 167 800  Level Philadelphia TRACON
Sun 09:56:55 PM 39.8333 -75.3000 218° Southwest 168 193 1,700 1,670 Climbing Philadelphia TRACON
Sun 09:57:56 PM 39.8000 -75.3500 229° Southwest 246 283 3,500 2,579 Climbing Philadelphia TRACON
Sun 09:58:56 PM 39.7333 -75.3667 191° South 274 315 6,900 3,105 Climbing Philadelphia TRACON
Sun 09:59:00 PM 39.8085 -74.8257 105° East  Level FlightAware Approximate
Sun 09:59:50 PM 39.7000 -75.2833 117° Southeast 303 349 9,400  Level Philadelphia TRACON
Sun 10:00:00 PM 39.7856 -74.6886 75° East  Level FlightAware Approximate
Sun 10:01:00 PM 39.8000 -74.5494 90° East  Level FlightAware Approximate
Sun 10:02:19 PM 39.7472 -75.0178 77° East 348 400 12,000  Level New York Center
Sun 10:03:18 PM 39.7664 -74.8894 79° East 338 389 12,000 1,077 Level New York Center
Sun 10:04:16 PM 39.7872 -74.7692 77° East 333 383 14,100 2,237 Climbing New York Center
Sun 10:05:16 PM 39.8000 -74.6400 83° East 339 390 16,400 2,100 Climbing New York Center
Sun 10:06:16 PM 39.8372 -74.5206 68° East 344 396 18,300 2,050 Climbing New York Center
Sun 10:07:16 PM 39.8950 -74.4072 56° Northeast 351 404 20,500 1,558 Climbing New York Center
Sun 10:09:17 PM 40.0075 -74.1844 57° Northeast 374 430 23,000 829 Climbing Boston Center
Sun 10:10:17 PM 40.0664 -74.0689 56° Northeast 381 438 23,000 149 Level Boston Center
Sun 10:11:18 PM 40.1231 -73.9525 57° Northeast 381 438 23,300 942 Climbing Boston Center
Sun 10:12:18 PM 40.1819 -73.8344 57° Northeast 383 441 24,900 1,623 Climbing Boston Center
Sun 10:13:20 PM 40.2475 -73.7039 57° Northeast 399 459 26,600 1,438 Climbing Boston Center
Sun 10:14:19 PM 40.3039 -73.5889 57° Northeast 402 463 27,800 1,140 Climbing Boston Center
Sun 10:15:21 PM 40.3800 -73.4767 48° Northeast 411 473 28,900 585 Climbing Boston Center
Sun 10:16:22 PM 40.4769 -73.3869 35° Northeast 420 483 29,000 50 Climbing Boston Center
Sun 10:17:21 PM 40.5786 -73.2922 35° Northeast 441 507 29,000  Level Boston Center
Sun 10:18:22 PM 40.6789 -73.1978 36° Northeast 442 509 29,000  Level Boston Center
Sun 10:19:25 PM 40.7786 -73.1028 36° Northeast 442 509 29,000  Level Boston Center
Sun 10:20:23 PM 40.8775 -73.0078 36° Northeast 442 509 29,000  Level Boston Center
Sun 10:21:24 PM 40.9956 -72.8942 36° Northeast 441 507 29,000  Level Boston Center
Sun 10:22:26 PM 41.0928 -72.7994 36° Northeast 440 506 29,000  Level Boston Center
Sun 10:23:27 PM 41.1900 -72.7047 36° Northeast 437 503 29,000  Level Boston Center
Sun 10:24:29 PM 41.2822 -72.6139 36° Northeast 436 502 29,000  Level Boston Center
Sun 10:25:30 PM 41.3806 -72.5192 36° Northeast 435 501 29,000  Level Boston Center
Sun 10:26:30 PM 41.4775 -72.4233 37° Northeast 435 501 29,000  Level Boston Center
Sun 10:27:30 PM 41.5767 -72.3264 36° Northeast 435 501 29,000  Level Boston Center
Sun 10:28:32 PM 41.6736 -72.2308 36° Northeast 435 501 29,000  Level Boston Center
Sun 10:29:33 PM 41.7689 -72.1356 37° Northeast 434 499 29,000  Level Boston Center
Sun 10:30:33 PM 41.8650 -72.0403 36° Northeast 434 499 29,000  Level Boston Center
Sun 10:31:33 PM 41.9606 -71.9433 37° Northeast 434 499 29,000  Level Boston Center
Sun 10:32:34 PM 42.0561 -71.8478 37° Northeast 434 499 29,000  Level Boston Center
Sun 10:33:35 PM 42.1708 -71.7333 36° Northeast 433 498 29,000  Level Boston Center
Sun 10:34:35 PM 42.2644 -71.6375 37° Northeast 432 497 29,000  Level Boston Center
Sun 10:35:37 PM 42.3586 -71.5411 37° Northeast 427 491 29,000  Level Boston Center
Sun 10:36:37 PM 42.4578 -71.4400 37° Northeast 427 491 29,000  Level Boston Center
Sun 10:37:37 PM 42.5531 -71.3425 37° Northeast 428 493 29,000  Level Boston Center
Sun 10:38:38 PM 42.6486 -71.2442 37° Northeast 428 493 29,000  Level Boston Center
Sun 10:39:39 PM 42.7436 -71.1478 37° Northeast 427 491 29,000  Level Boston Center
Sun 10:40:39 PM 42.8372 -71.0489 38° Northeast 427 491 29,000  Level Boston Center
Sun 10:41:40 PM 42.9325 -70.9514 37° Northeast 427 491 29,000  Level Boston Center
Sun 10:42:41 PM 43.0261 -70.8525 38° Northeast 427 491 29,000  Level Boston Center
Sun 10:43:44 PM 43.1206 -70.7525 38° Northeast 427 491 29,000  Level Boston Center
Sun 10:44:42 PM 43.2153 -70.6528 37° Northeast 427 491 29,000  Level Boston Center
Sun 10:45:45 PM 43.3094 -70.5558 37° Northeast 427 491 29,000  Level Boston Center
Sun 10:46:46 PM 43.4086 -70.4494 38° Northeast 428 493 29,000  Level Boston Center
Sun 10:47:46 PM 43.5031 -70.3461 38° Northeast 429 494 29,000 -347 Level Boston Center
Sun 10:48:47 PM 43.5967 -70.2461 38° Northeast 429 494 28,300 -934 Descending Boston Center
Sun 10:49:48 PM 43.6822 -70.1547 38° Northeast 395 455 27,100 -1,190 Descending Boston Center
Sun 10:50:48 PM 43.7681 -70.0625 38° Northeast 391 450 25,900 -1,180 Descending Boston Center
Sun 10:51:50 PM 43.8525 -69.9706 38° Northeast 390 449 24,700 -1,289 Descending Boston Center
Sun 10:52:49 PM 43.9339 -69.8825 38° Northeast 375 432 23,300 -1,462 Descending Boston Center
Sun 10:53:49 PM 44.0150 -69.7964 37° Northeast 368 423 21,800 -1,500 Descending Boston Center
Sun 10:54:53 PM 44.0919 -69.7097 39° Northeast 358 412 20,200 -1,525 Descending Boston Center
Sun 10:55:51 PM 44.1692 -69.6261 38° Northeast 353 406 18,700 -1,500 Descending Boston Center
Sun 10:56:53 PM 44.2406 -69.5369 42° Northeast 348 400 17,200 -1,694 Descending Boston Center
Sun 10:57:55 PM 44.2994 -69.4350 51° Northeast 340 391 15,200 -1,967 Descending Boston Center
Sun 10:58:55 PM 44.3578 -69.3350 51° Northeast 336 387 13,200 -1,983 Descending Boston Center
Sun 10:59:56 PM 44.4244 -69.2206 51° Northeast 317 365 11,200 -1,820 Descending Boston Center
Sun 11:00:57 PM 44.4767 -69.1306 51° Northeast 303 349 9,500 -1,820 Descending Boston Center
Sun 11:01:58 PM 44.5272 -69.0444 51° Northeast 289 333 7,500 -1,869 Descending Boston Center
Sun 11:02:59 PM 44.5767 -68.9583 51° Northeast 287 330 5,700 -1,700 Descending Boston Center
Sun 11:03:58 PM 44.6247 -68.8744 51° Northeast 282 325 4,100 -1,250 Descending Boston Center
Sun 11:04:59 PM 44.6664 -68.8031 51° Northeast 236 272 3,200 -893 Descending Boston Center
Sun 11:05:59 PM 44.7017 -68.7397 52° Northeast 208 239 2,300 -787 Descending Boston Center
Sun 11:07:01 PM 44.7442 -68.7369 North 176 203 1,600 -677 Descending Boston Center
Sun 11:08:03 PM 44.7681 -68.7725 313° West 133 153 900 -650 Descending Boston Center
Sun 11:09:01 PM 44.7942 -68.8100 314° West 132 152 300 -621 Descending Boston Center

Login

Don't have an account? Register now (free) for customized features, flight alerts, and more!